createdAt,value
2023-03-04T00:01:38.543Z,0.20
2023-03-04T00:04:05.982Z,0.22
2023-03-04T00:06:32.919Z,0.25
2023-03-04T00:09:00.136Z,0.22
2023-03-04T00:11:29.426Z,0.30
2023-03-04T00:13:56.593Z,0.21
2023-03-04T00:16:27.344Z,0.21
2023-03-04T00:18:55.304Z,0.17
2023-03-04T00:21:22.299Z,0.11
2023-03-04T00:23:49.664Z,0.06
2023-03-04T00:26:17.120Z,0.05
2023-03-04T00:28:44.444Z,0.06
2023-03-04T00:31:13.897Z,-0.04
2023-03-04T00:33:43.479Z,-0.08
2023-03-04T00:36:10.579Z,-0.16
2023-03-04T00:38:37.890Z,-0.23
2023-03-04T00:41:07.210Z,-0.34
2023-03-04T00:43:34.530Z,-0.41
2023-03-04T00:46:01.503Z,-0.45
2023-03-04T00:48:30.518Z,-0.50
2023-03-04T00:50:57.386Z,-0.55
2023-03-04T00:53:24.632Z,-0.57
2023-03-04T00:55:51.507Z,-0.61
2023-03-04T00:58:18.753Z,-0.66
2023-03-04T01:00:45.593Z,-0.67
2023-03-04T01:03:12.796Z,-0.70
2023-03-04T01:05:42.561Z,-0.72
2023-03-04T01:08:09.728Z,-0.73
2023-03-04T01:10:39.535Z,-0.72
2023-03-04T01:13:06.807Z,-0.76
2023-03-04T01:15:34.012Z,-0.80
2023-03-04T01:18:01.220Z,-0.79
2023-03-04T01:20:28.110Z,-0.82
2023-03-04T01:22:55.514Z,-0.84
2023-03-04T01:25:22.391Z,-0.85
2023-03-04T01:27:49.597Z,-0.84
2023-03-04T01:30:19.212Z,-0.86
2023-03-04T01:32:46.486Z,-0.87
2023-03-04T01:35:15.978Z,-0.92
2023-03-04T01:37:43.138Z,-0.96
2023-03-04T01:40:10.276Z,-1.01
2023-03-04T01:42:38.905Z,-1.03
2023-03-04T01:45:07.034Z,-1.09
2023-03-04T01:47:35.745Z,-1.15
2023-03-04T01:50:05.294Z,-1.19
2023-03-04T01:52:32.589Z,-1.26
2023-03-04T01:55:00.152Z,-1.31
2023-03-04T01:57:27.513Z,-1.32
2023-03-04T02:00:13.294Z,-1.35
2023-03-04T02:02:41.224Z,-1.41
2023-03-04T02:05:08.605Z,-1.40
2023-03-04T02:07:36.110Z,-1.42
2023-03-04T02:10:03.469Z,-1.48
2023-03-04T02:12:30.634Z,-1.50
2023-03-04T02:15:01.152Z,-1.55
2023-03-04T02:17:31.213Z,-1.57
2023-03-04T02:19:58.028Z,-1.59
2023-03-04T02:22:25.219Z,-1.56
2023-03-04T02:24:57.762Z,-1.53
2023-03-04T02:27:25.917Z,-1.48
2023-03-04T02:29:52.899Z,-1.39
2023-03-04T02:32:20.381Z,-1.40
2023-03-04T02:34:50.167Z,-1.40
2023-03-04T02:37:19.115Z,-1.36
2023-03-04T02:39:47.504Z,-1.37
2023-03-04T02:42:15.367Z,-1.38
2023-03-04T02:44:46.352Z,-1.38
2023-03-04T02:47:15.155Z,-1.35
2023-03-04T02:49:42.261Z,-1.33
2023-03-04T02:52:18.325Z,-1.36
2023-03-04T02:54:45.330Z,-1.39
2023-03-04T02:57:13.271Z,-1.41
2023-03-04T02:59:43.073Z,-1.43
2023-03-04T03:02:15.183Z,-1.44
2023-03-04T03:04:42.297Z,-1.40
2023-03-04T03:07:13.286Z,-1.35
2023-03-04T03:09:40.233Z,-1.41
2023-03-04T03:12:07.544Z,-1.43
2023-03-04T03:14:34.447Z,-1.42
2023-03-04T03:17:03.911Z,-1.44
2023-03-04T03:19:31.774Z,-1.46
2023-03-04T03:22:00.517Z,-1.48
2023-03-04T03:24:27.460Z,-1.47
2023-03-04T03:26:54.570Z,-1.51
2023-03-04T03:29:21.466Z,-1.53
2023-03-04T03:31:48.780Z,-1.57
2023-03-04T03:34:15.830Z,-1.60
2023-03-04T03:36:43.469Z,-1.65
2023-03-04T03:39:12.758Z,-1.68
2023-03-04T03:41:39.952Z,-1.73
2023-03-04T03:44:06.764Z,-1.74
2023-03-04T03:46:36.366Z,-1.78
2023-03-04T03:49:03.194Z,-1.69
2023-03-04T03:51:30.471Z,-1.63
2023-03-04T03:53:57.425Z,-1.44
2023-03-04T03:56:24.712Z,-1.38
2023-03-04T03:58:51.533Z,-1.29
2023-03-04T04:01:18.794Z,-1.30
2023-03-04T04:03:45.620Z,-1.21
2023-03-04T04:06:12.746Z,-1.11
2023-03-04T04:08:39.697Z,-1.10
2023-03-04T04:11:09.777Z,-1.12
2023-03-04T04:13:39.176Z,-1.12
2023-03-04T04:16:06.900Z,-1.12
2023-03-04T04:18:36.184Z,-1.12
2023-03-04T04:21:05.616Z,-1.09
2023-03-04T04:23:32.646Z,-1.09
2023-03-04T04:25:59.815Z,-1.13
2023-03-04T04:28:26.715Z,-1.13
2023-03-04T04:30:53.893Z,-0.98
2023-03-04T04:33:20.776Z,-0.82
2023-03-04T04:35:48.008Z,-0.52
2023-03-04T04:38:14.928Z,-0.29
2023-03-04T04:40:43.118Z,-0.06
2023-03-04T04:43:10.027Z,0.06
2023-03-04T04:45:37.757Z,0.48
2023-03-04T04:48:04.881Z,0.54
2023-03-04T04:50:33.122Z,0.56
2023-03-04T04:53:02.692Z,0.66
2023-03-04T04:55:30.142Z,0.85
2023-03-04T04:57:56.998Z,0.95
2023-03-04T05:00:24.185Z,1.09
2023-03-04T05:02:51.093Z,1.15
2023-03-04T05:05:18.550Z,1.04
2023-03-04T05:07:45.365Z,1.01
2023-03-04T05:10:12.499Z,0.99
2023-03-04T05:12:39.414Z,1.06
2023-03-04T05:15:06.877Z,1.32
2023-03-04T05:17:33.706Z,1.29
2023-03-04T05:20:00.932Z,1.32
2023-03-04T05:22:30.056Z,1.29
2023-03-04T05:24:57.321Z,1.32
2023-03-04T05:27:24.210Z,1.41
2023-03-04T05:29:55.698Z,1.45
2023-03-04T05:32:22.512Z,1.52
2023-03-04T05:34:49.802Z,1.64
2023-03-04T05:37:16.710Z,1.79
2023-03-04T05:39:46.266Z,1.88
2023-03-04T05:42:13.125Z,1.99
2023-03-04T05:44:40.284Z,2.08
2023-03-04T05:47:09.409Z,2.18
2023-03-04T05:49:36.621Z,2.24
2023-03-04T05:52:03.536Z,2.29
2023-03-04T05:54:30.687Z,2.45
2023-03-04T05:56:57.621Z,2.55
2023-03-04T05:59:24.852Z,2.62
2023-03-04T06:01:54.739Z,2.69
2023-03-04T06:04:21.937Z,2.86
2023-03-04T06:06:48.849Z,3.15
2023-03-04T06:09:16.127Z,3.13
2023-03-04T06:11:42.984Z,3.05
2023-03-04T06:14:10.215Z,3.12
2023-03-04T06:16:37.116Z,3.27
2023-03-04T06:19:04.294Z,3.28
2023-03-04T06:21:31.185Z,3.18
2023-03-04T06:23:58.443Z,3.14
2023-03-04T06:26:25.310Z,3.09
2023-03-04T06:28:56.907Z,3.11
2023-03-04T06:31:24.203Z,3.12
2023-03-04T06:33:51.389Z,3.17
2023-03-04T06:36:18.269Z,3.37
2023-03-04T06:38:45.462Z,3.96
2023-03-04T06:41:13.063Z,4.50
2023-03-04T06:43:40.659Z,5.70
2023-03-04T06:46:08.122Z,6.72
2023-03-04T06:48:37.780Z,8.06
2023-03-04T06:51:08.071Z,8.59
2023-03-04T06:53:35.740Z,9.35
2023-03-04T06:56:04.945Z,10.23
2023-03-04T06:58:32.242Z,11.27
2023-03-04T07:01:11.705Z,11.70
2023-03-04T07:03:38.927Z,12.50
2023-03-04T07:06:05.884Z,13.63
2023-03-04T07:08:33.143Z,13.30
2023-03-04T07:11:00.023Z,13.16
2023-03-04T07:13:27.205Z,14.29
2023-03-04T07:15:57.317Z,14.72
2023-03-04T07:18:29.450Z,15.50
2023-03-04T07:20:56.324Z,15.15
2023-03-04T07:23:23.444Z,15.97
2023-03-04T07:25:51.072Z,15.85
2023-03-04T07:28:18.302Z,15.52
2023-03-04T07:30:45.634Z,16.02
2023-03-04T07:33:13.333Z,16.48
2023-03-04T07:35:40.731Z,16.82
2023-03-04T07:38:08.018Z,16.94
2023-03-04T07:40:34.931Z,16.50
2023-03-04T07:43:02.285Z,16.78
2023-03-04T07:45:29.151Z,16.74
2023-03-04T07:47:57.677Z,16.43
2023-03-04T07:50:24.735Z,16.49
2023-03-04T07:52:52.129Z,17.30
2023-03-04T07:55:21.499Z,16.28
2023-03-04T07:57:48.853Z,16.14
2023-03-04T08:00:16.775Z,16.15
2023-03-04T08:02:44.105Z,15.67
2023-03-04T08:05:13.782Z,15.36
2023-03-04T08:07:42.979Z,15.26
2023-03-04T08:10:10.339Z,15.25
2023-03-04T08:12:37.526Z,14.79
2023-03-04T08:15:04.662Z,14.92
2023-03-04T08:17:34.177Z,15.13
2023-03-04T08:20:00.984Z,14.75
2023-03-04T08:22:28.487Z,14.21
2023-03-04T08:24:55.338Z,14.28
2023-03-04T08:27:22.699Z,13.80
2023-03-04T08:29:51.899Z,13.05
2023-03-04T08:32:19.169Z,12.89
2023-03-04T08:34:46.193Z,13.12
2023-03-04T08:37:16.450Z,12.74
2023-03-04T08:39:43.393Z,12.42
2023-03-04T08:42:10.773Z,11.98
2023-03-04T08:44:37.806Z,11.87
2023-03-04T08:47:04.968Z,11.53
2023-03-04T08:49:31.830Z,11.73
2023-03-04T08:51:59.174Z,11.89
2023-03-04T08:54:26.085Z,11.83
2023-03-04T08:56:53.378Z,11.81
2023-03-04T08:59:20.539Z,11.94
2023-03-04T09:01:47.799Z,11.60
2023-03-04T09:04:14.723Z,11.26
2023-03-04T09:06:41.960Z,11.32
2023-03-04T09:09:09.012Z,11.18
2023-03-04T09:11:36.177Z,11.01
2023-03-04T09:14:03.072Z,11.08
2023-03-04T09:16:30.354Z,11.09
2023-03-04T09:18:57.289Z,11.24
2023-03-04T09:21:24.460Z,11.13
2023-03-04T09:23:51.546Z,11.17
2023-03-04T09:26:23.445Z,11.09
2023-03-04T09:28:51.618Z,11.17
2023-03-04T09:31:18.906Z,10.92
2023-03-04T09:33:45.898Z,10.91
2023-03-04T09:36:13.824Z,10.97
2023-03-04T09:38:41.436Z,10.96
2023-03-04T09:41:28.890Z,11.03
2023-03-04T09:43:56.134Z,11.08
2023-03-04T09:46:34.114Z,11.00
2023-03-04T09:49:01.281Z,11.14
2023-03-04T09:51:37.834Z,11.17
2023-03-04T09:54:23.335Z,11.25
2023-03-04T09:56:51.648Z,11.07
2023-03-04T09:59:37.600Z,11.16
2023-03-04T10:02:16.711Z,11.09
2023-03-04T10:04:48.936Z,11.06
2023-03-04T10:07:19.379Z,10.97
2023-03-04T10:09:55.186Z,11.19
2023-03-04T10:12:25.770Z,11.24
2023-03-04T10:14:54.646Z,11.14
2023-03-04T10:17:34.271Z,11.19
2023-03-04T10:20:03.931Z,11.35
2023-03-04T10:22:56.427Z,11.44
2023-03-04T10:25:25.687Z,11.36
2023-03-04T10:27:55.540Z,11.32
2023-03-04T10:30:41.287Z,11.29
2023-03-04T10:33:18.362Z,11.44
2023-03-04T10:35:48.534Z,11.38
2023-03-04T10:38:16.118Z,11.47
2023-03-04T10:40:45.131Z,11.25
2023-03-04T10:43:15.242Z,11.10
2023-03-04T10:45:42.288Z,11.29
2023-03-04T10:48:18.245Z,11.65
2023-03-04T10:50:45.162Z,11.81
2023-03-04T10:53:33.619Z,11.91
2023-03-04T10:56:03.207Z,11.94
2023-03-04T10:58:30.532Z,12.02
2023-03-04T11:01:05.482Z,12.02
2023-03-04T11:03:32.827Z,12.06
2023-03-04T11:06:12.546Z,11.86
2023-03-04T11:08:40.726Z,11.68
2023-03-04T11:11:42.586Z,11.58
2023-03-04T11:14:21.149Z,11.55
2023-03-04T11:17:02.193Z,11.64
2023-03-04T11:19:34.779Z,11.67
2023-03-04T11:22:01.666Z,11.81
2023-03-04T11:24:30.807Z,11.83
2023-03-04T11:27:00.567Z,11.75
2023-03-04T11:29:49.963Z,11.91
2023-03-04T11:32:23.175Z,11.88
2023-03-04T11:35:09.273Z,11.86
2023-03-04T11:37:59.920Z,11.76
2023-03-04T11:40:42.326Z,11.64
2023-03-04T11:43:28.068Z,11.81
2023-03-04T11:46:05.835Z,11.79
2023-03-04T11:48:42.036Z,11.68
2023-03-04T11:51:13.019Z,11.86
2023-03-04T11:53:48.486Z,11.77
2023-03-04T11:56:24.527Z,11.64
2023-03-04T11:59:00.546Z,11.86
2023-03-04T12:01:30.914Z,12.04
2023-03-04T12:04:06.814Z,12.04
2023-03-04T12:06:40.349Z,12.07
2023-03-04T12:09:26.497Z,12.06
2023-03-04T12:12:19.567Z,12.08
2023-03-04T12:14:46.545Z,11.97
2023-03-04T12:17:13.665Z,11.91
2023-03-04T12:19:54.023Z,11.86
2023-03-04T12:22:24.195Z,12.03
2023-03-04T12:24:51.134Z,12.20
2023-03-04T12:27:18.383Z,12.22
2023-03-04T12:30:07.053Z,12.15
2023-03-04T12:32:47.132Z,12.02
2023-03-04T12:35:26.351Z,12.00
2023-03-04T12:38:13.840Z,12.04
2023-03-04T12:40:56.383Z,12.14
2023-03-04T12:43:26.627Z,12.20
2023-03-04T12:45:56.595Z,12.20
2023-03-04T12:48:23.643Z,12.15
2023-03-04T12:50:53.876Z,12.11
2023-03-04T12:53:20.791Z,12.10
2023-03-04T12:55:49.892Z,12.10
2023-03-04T12:58:20.981Z,12.07
2023-03-04T13:01:00.165Z,11.91
2023-03-04T13:03:42.890Z,11.84
2023-03-04T13:06:33.807Z,11.85
2023-03-04T13:09:00.830Z,12.01
2023-03-04T13:11:28.518Z,12.05
2023-03-04T13:14:01.887Z,11.90
2023-03-04T13:16:29.335Z,11.99
2023-03-04T13:18:56.257Z,12.05
2023-03-04T13:21:33.179Z,12.07
2023-03-04T13:24:23.154Z,12.02
2023-03-04T13:26:50.680Z,11.84
2023-03-04T13:29:17.587Z,11.80
2023-03-04T13:32:03.744Z,11.80
2023-03-04T13:34:46.534Z,11.81
2023-03-04T13:37:34.209Z,11.77
2023-03-04T13:40:20.588Z,11.75
2023-03-04T13:42:48.389Z,11.85
2023-03-04T13:45:33.841Z,11.76
2023-03-04T13:48:02.650Z,11.78
2023-03-04T13:50:35.338Z,11.76
2023-03-04T13:53:24.157Z,11.73
2023-03-04T13:56:13.017Z,11.72
2023-03-04T13:58:41.367Z,11.79
2023-03-04T14:01:25.954Z,11.80
2023-03-04T14:03:53.163Z,11.82
2023-03-04T14:06:22.141Z,11.69
2023-03-04T14:08:52.343Z,11.56
2023-03-04T14:11:25.414Z,10.52
2023-03-04T14:13:57.685Z,10.00
2023-03-04T14:16:27.257Z,9.75
2023-03-04T14:18:58.856Z,9.37
2023-03-04T14:21:25.831Z,9.13
2023-03-04T14:24:09.690Z,9.04
2023-03-04T14:26:36.860Z,8.81
2023-03-04T14:29:19.252Z,8.61
2023-03-04T14:31:48.632Z,8.31
2023-03-04T14:34:25.165Z,8.23
2023-03-04T14:36:54.687Z,8.11
2023-03-04T14:39:23.743Z,8.00
2023-03-04T14:41:53.036Z,7.75
2023-03-04T14:44:30.759Z,7.63
2023-03-04T14:47:08.010Z,7.49
2023-03-04T14:49:36.857Z,7.51
2023-03-04T14:52:04.008Z,7.46
2023-03-04T14:54:37.852Z,7.40
2023-03-04T14:57:24.336Z,7.33
2023-03-04T14:59:53.197Z,7.31
2023-03-04T15:02:24.362Z,7.23
2023-03-04T15:04:51.675Z,7.17
2023-03-04T15:07:21.860Z,7.09
2023-03-04T15:09:51.533Z,7.04
2023-03-04T15:12:23.501Z,7.01
2023-03-04T15:14:52.661Z,6.96
2023-03-04T15:17:25.959Z,6.92
2023-03-04T15:19:59.695Z,6.83
2023-03-04T15:22:27.384Z,6.77
2023-03-04T15:24:54.710Z,6.75
2023-03-04T15:27:27.656Z,6.70
2023-03-04T15:29:56.492Z,6.66
2023-03-04T15:32:24.113Z,6.59
2023-03-04T15:34:53.732Z,6.51
2023-03-04T15:37:30.101Z,6.47
2023-03-04T15:39:58.602Z,6.41
2023-03-04T15:42:25.902Z,6.31
2023-03-04T15:44:54.102Z,6.21
2023-03-04T15:47:21.125Z,6.16
2023-03-04T15:49:48.845Z,6.07
2023-03-04T15:52:17.937Z,6.02
2023-03-04T15:54:45.969Z,5.93
2023-03-04T15:57:24.347Z,5.85
2023-03-04T15:59:52.175Z,5.76
2023-03-04T16:02:20.691Z,5.64
2023-03-04T16:04:48.141Z,5.54
2023-03-04T16:07:19.301Z,5.46
2023-03-04T16:09:53.038Z,5.33
2023-03-04T16:12:20.686Z,5.26
2023-03-04T16:14:49.898Z,5.21
2023-03-04T16:17:17.361Z,5.11
2023-03-04T16:19:46.647Z,5.02
2023-03-04T16:22:16.099Z,4.98
2023-03-04T16:24:44.575Z,4.94
2023-03-04T16:27:15.831Z,4.88
2023-03-04T16:29:43.737Z,4.78
2023-03-04T16:32:11.429Z,4.73
2023-03-04T16:34:39.120Z,4.62
2023-03-04T16:37:08.562Z,4.62
2023-03-04T16:39:36.849Z,4.58
2023-03-04T16:42:04.084Z,4.49
2023-03-04T16:44:31.552Z,4.48
2023-03-04T16:46:58.701Z,4.43
2023-03-04T16:49:30.535Z,4.35
2023-03-04T16:51:57.793Z,4.27
2023-03-04T16:54:31.013Z,4.22
2023-03-04T16:57:00.897Z,4.14
2023-03-04T16:59:29.250Z,4.02
2023-03-04T17:01:59.682Z,4.02
2023-03-04T17:04:27.594Z,3.98
2023-03-04T17:06:55.193Z,3.90
2023-03-04T17:09:22.709Z,3.84
2023-03-04T17:11:49.990Z,3.78
2023-03-04T17:14:17.820Z,3.71
2023-03-04T17:16:46.510Z,3.75
2023-03-04T17:19:14.112Z,3.75
2023-03-04T17:21:45.569Z,3.63
2023-03-04T17:24:13.601Z,3.61
2023-03-04T17:26:42.951Z,3.56
2023-03-04T17:29:10.688Z,3.53
2023-03-04T17:31:39.424Z,3.54
2023-03-04T17:34:09.361Z,3.47
2023-03-04T17:36:39.394Z,3.44
2023-03-04T17:39:08.896Z,3.36
2023-03-04T17:41:37.035Z,3.33
2023-03-04T17:44:08.375Z,3.34
2023-03-04T17:46:36.267Z,3.26
2023-03-04T17:49:04.434Z,3.14
2023-03-04T17:51:33.665Z,3.09
2023-03-04T17:54:02.022Z,3.16
2023-03-04T17:56:33.391Z,3.13
2023-03-04T17:59:02.483Z,3.22
2023-03-04T18:01:31.912Z,3.28
2023-03-04T18:04:00.543Z,3.20
2023-03-04T18:06:28.297Z,3.09
2023-03-04T18:08:56.510Z,3.06
2023-03-04T18:11:25.210Z,2.96
2023-03-04T18:13:56.160Z,2.94
2023-03-04T18:16:27.250Z,2.88
2023-03-04T18:18:58.231Z,2.84
2023-03-04T18:21:27.251Z,2.69
2023-03-04T18:23:55.557Z,2.71
2023-03-04T18:26:24.558Z,2.64
2023-03-04T18:28:53.927Z,2.61
2023-03-04T18:31:23.029Z,2.65
2023-03-04T18:33:52.562Z,2.88
2023-03-04T18:36:21.063Z,2.94
2023-03-04T18:38:51.619Z,3.02
2023-03-04T18:41:21.116Z,2.97
2023-03-04T18:43:49.384Z,2.93
2023-03-04T18:46:19.234Z,2.95
2023-03-04T18:48:52.359Z,3.06
2023-03-04T18:51:20.302Z,3.06
2023-03-04T18:53:48.672Z,3.06
2023-03-04T18:56:22.404Z,3.08
2023-03-04T18:58:51.727Z,3.03
2023-03-04T19:01:21.443Z,3.02
2023-03-04T19:03:51.618Z,2.99
2023-03-04T19:06:19.646Z,2.94
2023-03-04T19:08:47.700Z,2.91
2023-03-04T19:11:18.876Z,2.83
2023-03-04T19:13:48.108Z,2.79
2023-03-04T19:16:16.522Z,2.70
2023-03-04T19:18:44.937Z,2.68
2023-03-04T19:21:13.834Z,2.70
2023-03-04T19:23:44.608Z,2.64
2023-03-04T19:26:14.060Z,2.65
2023-03-04T19:28:45.779Z,2.63
2023-03-04T19:31:13.841Z,2.58
2023-03-04T19:33:44.743Z,2.52
2023-03-04T19:36:12.640Z,2.45
2023-03-04T19:38:41.137Z,2.45
2023-03-04T19:41:10.668Z,2.43
2023-03-04T19:43:39.934Z,2.36
2023-03-04T19:46:09.978Z,2.32
2023-03-04T19:48:40.956Z,2.28
2023-03-04T19:51:16.076Z,2.33
2023-03-04T19:53:44.469Z,2.29
2023-03-04T19:56:12.794Z,2.32
2023-03-04T19:58:40.905Z,2.33
2023-03-04T20:01:19.676Z,2.36
2023-03-04T20:03:48.927Z,2.52
2023-03-04T20:06:19.581Z,2.62
2023-03-04T20:08:47.835Z,2.73
2023-03-04T20:11:15.428Z,2.81
2023-03-04T20:13:44.113Z,2.84
2023-03-04T20:16:13.878Z,2.90
2023-03-04T20:18:42.952Z,2.91
2023-03-04T20:21:11.839Z,2.93
2023-03-04T20:23:41.661Z,2.91
2023-03-04T20:26:09.428Z,2.89
2023-03-04T20:28:50.789Z,2.94
2023-03-04T20:31:24.147Z,3.01
2023-03-04T20:33:53.092Z,3.08
2023-03-04T20:36:22.244Z,3.07
2023-03-04T20:39:00.661Z,3.06
2023-03-04T20:41:30.043Z,3.06
2023-03-04T20:44:01.019Z,3.03
2023-03-04T20:46:32.061Z,2.96
2023-03-04T20:49:03.922Z,2.88
2023-03-04T20:51:34.967Z,2.80
2023-03-04T20:54:05.132Z,2.70
2023-03-04T20:56:36.155Z,2.66
2023-03-04T20:59:05.449Z,2.59
2023-03-04T21:01:33.670Z,2.50
2023-03-04T21:04:02.424Z,2.52
2023-03-04T21:06:33.035Z,2.54
2023-03-04T21:09:01.670Z,2.52
2023-03-04T21:11:29.135Z,2.55
2023-03-04T21:13:57.825Z,2.56
2023-03-04T21:16:27.549Z,2.59
2023-03-04T21:18:55.529Z,2.63
2023-03-04T21:21:24.326Z,2.68
2023-03-04T21:23:53.211Z,2.77
2023-03-04T21:26:21.380Z,2.89
2023-03-04T21:28:51.298Z,2.93
2023-03-04T21:31:19.476Z,3.03
2023-03-04T21:33:47.763Z,3.10
2023-03-04T21:36:15.861Z,3.15
2023-03-04T21:38:44.346Z,3.21
2023-03-04T21:41:13.200Z,3.29
2023-03-04T21:43:40.558Z,3.33
2023-03-04T21:46:09.300Z,3.34
2023-03-04T21:48:37.252Z,3.32
2023-03-04T21:51:07.872Z,3.30
2023-03-04T21:53:35.732Z,3.28
2023-03-04T21:56:03.082Z,3.23
2023-03-04T21:58:31.216Z,3.23
2023-03-04T22:00:59.230Z,3.21
2023-03-04T22:03:27.602Z,3.17
2023-03-04T22:05:54.865Z,3.12
2023-03-04T22:08:22.359Z,3.10
2023-03-04T22:10:49.560Z,3.03
2023-03-04T22:13:16.926Z,3.02
2023-03-04T22:15:44.385Z,3.02
2023-03-04T22:18:13.346Z,3.01
2023-03-04T22:20:42.185Z,3.01
2023-03-04T22:23:09.880Z,3.00
2023-03-04T22:25:38.050Z,3.02
2023-03-04T22:28:06.817Z,3.01
2023-03-04T22:30:34.290Z,3.02
2023-03-04T22:33:01.584Z,3.03
2023-03-04T22:35:28.591Z,3.00
2023-03-04T22:37:55.847Z,3.02
2023-03-04T22:40:22.775Z,2.98
2023-03-04T22:42:50.234Z,2.96
2023-03-04T22:45:18.149Z,2.96
2023-03-04T22:47:49.737Z,2.92
2023-03-04T22:50:20.084Z,2.89
2023-03-04T22:52:48.361Z,2.86
2023-03-04T22:55:16.068Z,2.85
2023-03-04T22:57:43.413Z,2.91
2023-03-04T23:00:29.388Z,2.83
2023-03-04T23:02:59.277Z,2.87
2023-03-04T23:05:29.535Z,2.84
2023-03-04T23:07:56.948Z,2.81
2023-03-04T23:10:24.867Z,2.79
2023-03-04T23:12:52.755Z,2.78
2023-03-04T23:15:19.930Z,2.79
2023-03-04T23:17:47.352Z,2.77
2023-03-04T23:20:16.292Z,2.74
2023-03-04T23:22:44.217Z,2.71
2023-03-04T23:25:11.413Z,2.70
2023-03-04T23:27:41.236Z,2.70
2023-03-04T23:30:14.972Z,2.72
2023-03-04T23:32:42.724Z,2.71
2023-03-04T23:35:10.146Z,2.73
2023-03-04T23:37:39.680Z,2.72
2023-03-04T23:40:06.873Z,2.73
2023-03-04T23:42:34.118Z,2.70
2023-03-04T23:45:00.969Z,2.71
2023-03-04T23:47:28.432Z,2.70
2023-03-04T23:49:55.780Z,2.64
2023-03-04T23:52:22.966Z,2.63
2023-03-04T23:54:49.834Z,2.62
2023-03-04T23:57:16.992Z,2.60
2023-03-04T23:59:46.811Z,2.64
